createdAt,value
2022-10-22T00:00:57.103Z,15.12
2022-10-22T00:03:23.885Z,15.10
2022-10-22T00:05:50.355Z,15.02
2022-10-22T00:08:16.897Z,15.03
2022-10-22T00:10:43.562Z,15.05
2022-10-22T00:13:11.161Z,14.95
2022-10-22T00:15:37.669Z,14.92
2022-10-22T00:18:04.244Z,14.82
2022-10-22T00:20:31.109Z,14.85
2022-10-22T00:22:57.716Z,14.87
2022-10-22T00:25:24.268Z,14.78
2022-10-22T00:27:50.740Z,14.83
2022-10-22T00:30:17.192Z,14.78
2022-10-22T00:32:43.775Z,14.79
2022-10-22T00:35:10.281Z,14.84
2022-10-22T00:37:36.822Z,14.89
2022-10-22T00:40:04.201Z,14.75
2022-10-22T00:42:30.681Z,14.76
2022-10-22T00:45:07.080Z,14.80
2022-10-22T00:47:46.897Z,14.92
2022-10-22T00:50:23.733Z,14.89
2022-10-22T00:52:50.770Z,14.95
2022-10-22T00:55:18.393Z,14.89
2022-10-22T00:57:45.085Z,14.80
2022-10-22T01:00:12.128Z,14.80
2022-10-22T01:02:39.496Z,14.90
2022-10-22T01:05:07.006Z,14.91
2022-10-22T01:07:37.724Z,14.93
2022-10-22T01:10:28.605Z,14.83
2022-10-22T01:13:05.682Z,14.92
2022-10-22T01:15:55.264Z,14.91
2022-10-22T01:18:43.802Z,15.02
2022-10-22T01:21:32.136Z,15.04
2022-10-22T01:24:08.012Z,15.09
2022-10-22T01:26:55.641Z,15.03
2022-10-22T01:29:50.016Z,15.11
2022-10-22T01:32:19.785Z,15.08
2022-10-22T01:34:50.734Z,15.13
2022-10-22T01:37:18.203Z,15.15
2022-10-22T01:39:46.501Z,15.03
2022-10-22T01:42:14.920Z,15.01
2022-10-22T01:44:41.674Z,15.05
2022-10-22T01:47:26.027Z,14.89
2022-10-22T01:50:09.175Z,15.01
2022-10-22T01:52:40.104Z,14.90
2022-10-22T01:55:42.032Z,14.89
2022-10-22T01:58:28.665Z,14.77
2022-10-22T02:01:10.308Z,14.88
2022-10-22T02:03:41.503Z,14.90
2022-10-22T02:06:14.319Z,14.91
2022-10-22T02:08:41.329Z,14.89
2022-10-22T02:11:07.998Z,14.87
2022-10-22T02:13:39.218Z,14.70
2022-10-22T02:16:08.398Z,14.73
2022-10-22T02:18:38.893Z,14.75
2022-10-22T02:21:09.760Z,14.65
2022-10-22T02:23:36.613Z,14.67
2022-10-22T02:26:37.365Z,14.74
2022-10-22T02:29:12.580Z,14.63
2022-10-22T02:31:40.933Z,14.71
2022-10-22T02:34:11.091Z,14.61
2022-10-22T02:36:44.447Z,14.66
2022-10-22T02:39:13.709Z,14.58
2022-10-22T02:41:40.537Z,14.57
2022-10-22T02:44:09.724Z,14.44
2022-10-22T02:46:37.366Z,14.52
2022-10-22T02:49:04.231Z,14.41
2022-10-22T02:51:30.722Z,14.42
2022-10-22T02:53:57.196Z,14.30
2022-10-22T02:56:23.665Z,14.40
2022-10-22T02:58:50.277Z,14.34
2022-10-22T03:01:16.814Z,14.28
2022-10-22T03:03:43.370Z,14.28
2022-10-22T03:06:09.861Z,14.03
2022-10-22T03:08:36.324Z,14.00
2022-10-22T03:11:02.823Z,13.87
2022-10-22T03:13:29.525Z,13.92
2022-10-22T03:15:55.964Z,13.99
2022-10-22T03:18:22.423Z,13.96
2022-10-22T03:20:48.982Z,13.98
2022-10-22T03:23:17.556Z,13.88
2022-10-22T03:25:45.173Z,13.96
2022-10-22T03:28:14.169Z,13.89
2022-10-22T03:30:40.736Z,13.78
2022-10-22T03:33:07.202Z,13.86
2022-10-22T03:35:39.620Z,13.70
2022-10-22T03:38:06.173Z,13.80
2022-10-22T03:40:32.640Z,13.66
2022-10-22T03:42:59.141Z,13.65
2022-10-22T03:45:25.688Z,13.73
2022-10-22T03:47:52.172Z,13.74
2022-10-22T03:50:18.769Z,13.59
2022-10-22T03:52:45.193Z,13.51
2022-10-22T03:55:11.652Z,13.38
2022-10-22T03:57:38.385Z,13.23
2022-10-22T04:00:06.731Z,13.33
2022-10-22T04:02:33.220Z,13.31
2022-10-22T04:04:59.808Z,13.36
2022-10-22T04:07:26.460Z,13.43
2022-10-22T04:09:52.894Z,13.43
2022-10-22T04:12:19.392Z,13.30
2022-10-22T04:14:45.983Z,13.37
2022-10-22T04:17:12.512Z,13.37
2022-10-22T04:19:39.360Z,13.25
2022-10-22T04:22:48.827Z,13.14
2022-10-22T04:25:15.987Z,13.13
2022-10-22T04:27:42.922Z,12.96
2022-10-22T04:30:10.073Z,13.02
2022-10-22T04:32:36.584Z,12.96
2022-10-22T04:35:03.307Z,13.02
2022-10-22T04:37:29.792Z,12.91
2022-10-22T04:39:58.143Z,12.91
2022-10-22T04:42:24.976Z,12.77
2022-10-22T04:44:51.469Z,12.76
2022-10-22T04:47:17.978Z,12.76
2022-10-22T04:49:44.504Z,12.69
2022-10-22T04:52:12.573Z,12.50
2022-10-22T04:54:39.439Z,12.54
2022-10-22T04:57:06.070Z,12.64
2022-10-22T04:59:32.552Z,12.63
2022-10-22T05:01:59.080Z,12.49
2022-10-22T05:04:25.593Z,12.46
2022-10-22T05:06:52.669Z,12.43
2022-10-22T05:09:20.327Z,12.53
2022-10-22T05:11:49.147Z,12.55
2022-10-22T05:14:21.296Z,12.38
2022-10-22T05:16:48.864Z,12.51
2022-10-22T05:19:19.292Z,12.42
2022-10-22T05:21:45.870Z,12.39
2022-10-22T05:24:13.122Z,12.41
2022-10-22T05:26:39.652Z,12.46
2022-10-22T05:29:06.369Z,12.36
2022-10-22T05:31:32.946Z,12.33
2022-10-22T05:33:59.480Z,12.31
2022-10-22T05:36:26.047Z,12.34
2022-10-22T05:38:52.763Z,12.25
2022-10-22T05:41:21.806Z,12.31
2022-10-22T05:43:48.649Z,12.30
2022-10-22T05:46:22.810Z,12.21
2022-10-22T05:48:56.137Z,12.27
2022-10-22T05:51:24.281Z,12.09
2022-10-22T05:53:53.050Z,12.05
2022-10-22T05:56:19.698Z,12.01
2022-10-22T05:58:46.438Z,12.07
2022-10-22T06:01:15.607Z,12.04
2022-10-22T06:03:42.503Z,12.03
2022-10-22T06:06:22.060Z,11.86
2022-10-22T06:08:49.948Z,11.90
2022-10-22T06:11:17.924Z,11.92
2022-10-22T06:13:45.458Z,11.84
2022-10-22T06:16:12.065Z,11.90
2022-10-22T06:18:38.599Z,11.92
2022-10-22T06:21:10.408Z,11.86
2022-10-22T06:23:38.808Z,11.78
2022-10-22T06:26:06.362Z,11.82
2022-10-22T06:28:33.545Z,11.81
2022-10-22T06:31:01.291Z,11.84
2022-10-22T06:33:28.617Z,11.71
2022-10-22T06:35:55.260Z,11.75
2022-10-22T06:38:23.911Z,11.74
2022-10-22T06:40:50.348Z,11.74
2022-10-22T06:43:16.829Z,11.72
2022-10-22T06:45:43.395Z,11.54
2022-10-22T06:48:57.202Z,11.54
2022-10-22T06:51:45.547Z,11.68
2022-10-22T06:54:12.195Z,11.71
2022-10-22T06:56:38.761Z,11.71
2022-10-22T06:59:05.233Z,11.45
2022-10-22T07:01:33.336Z,11.43
2022-10-22T07:04:00.544Z,11.52
2022-10-22T07:06:28.189Z,11.50
2022-10-22T07:08:56.383Z,11.56
2022-10-22T07:11:25.320Z,11.63
2022-10-22T07:13:54.472Z,11.63
2022-10-22T07:16:21.003Z,11.58
2022-10-22T07:18:47.931Z,11.62
2022-10-22T07:21:16.257Z,11.59
2022-10-22T07:23:43.485Z,11.64
2022-10-22T07:26:11.018Z,11.70
2022-10-22T07:28:39.900Z,11.85
2022-10-22T07:31:08.173Z,11.94
2022-10-22T07:33:34.983Z,11.86
2022-10-22T07:36:06.938Z,11.96
2022-10-22T07:38:33.984Z,12.13
2022-10-22T07:41:01.143Z,12.32
2022-10-22T07:43:27.647Z,12.42
2022-10-22T07:45:55.926Z,12.56
2022-10-22T07:48:23.480Z,12.64
2022-10-22T07:50:51.322Z,12.78
2022-10-22T07:53:18.225Z,12.87
2022-10-22T07:55:48.293Z,12.94
2022-10-22T07:58:18.672Z,13.00
2022-10-22T08:00:45.488Z,13.02
2022-10-22T08:03:13.079Z,13.16
2022-10-22T08:05:52.435Z,13.19
2022-10-22T08:08:19.216Z,13.22
2022-10-22T08:10:47.586Z,13.24
2022-10-22T08:13:17.518Z,13.28
2022-10-22T08:18:11.505Z,13.31
2022-10-22T08:20:38.024Z,13.37
2022-10-22T08:23:04.520Z,13.46
2022-10-22T08:25:36.279Z,13.50
2022-10-22T08:28:02.865Z,13.51
2022-10-22T08:30:29.827Z,13.54
2022-10-22T08:32:59.008Z,13.60
2022-10-22T08:35:25.566Z,13.60
2022-10-22T08:38:00.940Z,13.70
2022-10-22T08:40:38.519Z,13.72
2022-10-22T08:43:45.453Z,13.78
2022-10-22T08:47:29.236Z,13.87
2022-10-22T08:49:58.472Z,13.84
2022-10-22T08:52:36.542Z,13.90
2022-10-22T08:55:03.746Z,14.08
2022-10-22T08:57:35.964Z,14.03
2022-10-22T09:00:07.309Z,14.10
2022-10-22T09:02:59.937Z,14.17
2022-10-22T09:05:55.870Z,14.22
2022-10-22T09:08:23.247Z,14.21
2022-10-22T09:14:49.357Z,14.52
2022-10-22T09:17:37.847Z,14.60
2022-10-22T09:20:23.917Z,14.54
2022-10-22T09:23:19.369Z,14.61
2022-10-22T09:26:13.109Z,14.69
2022-10-22T09:28:40.136Z,14.80
2022-10-22T09:31:14.230Z,14.72
2022-10-22T09:33:42.445Z,14.81
2022-10-22T09:36:13.686Z,14.96
2022-10-22T09:38:45.258Z,14.79
2022-10-22T09:41:11.950Z,14.81
2022-10-22T09:43:38.446Z,14.95
2022-10-22T09:46:07.243Z,14.98
2022-10-22T09:48:39.822Z,14.99
2022-10-22T09:51:07.780Z,15.04
2022-10-22T09:53:58.385Z,15.17
2022-10-22T09:56:26.063Z,15.20
2022-10-22T09:58:52.640Z,15.34
2022-10-22T10:01:23.120Z,15.30
2022-10-22T10:03:50.299Z,15.46
2022-10-22T10:06:21.557Z,15.45
2022-10-22T10:08:48.610Z,15.49
2022-10-22T10:11:28.797Z,15.54
2022-10-22T10:14:07.855Z,15.70
2022-10-22T10:16:43.424Z,15.89
2022-10-22T10:19:43.672Z,15.83
2022-10-22T10:22:19.324Z,15.84
2022-10-22T10:25:31.663Z,15.84
2022-10-22T10:28:01.188Z,16.05
2022-10-22T10:30:27.867Z,15.96
2022-10-22T10:33:29.126Z,15.96
2022-10-22T10:36:02.456Z,15.96
2022-10-22T10:38:43.898Z,16.05
2022-10-22T10:41:17.846Z,16.02
2022-10-22T10:43:50.243Z,15.99
2022-10-22T10:46:19.702Z,16.12
2022-10-22T10:48:50.064Z,16.19
2022-10-22T10:51:38.845Z,16.18
2022-10-22T10:54:30.133Z,16.40
2022-10-22T10:57:00.751Z,16.41
2022-10-22T10:59:59.768Z,16.53
2022-10-22T11:03:11.147Z,16.62
2022-10-22T11:05:43.431Z,16.76
2022-10-22T11:08:26.506Z,16.58
2022-10-22T11:10:55.372Z,16.72
2022-10-22T11:13:30.777Z,16.80
2022-10-22T11:16:12.520Z,16.80
2022-10-22T11:18:43.390Z,16.88
2022-10-22T11:21:21.567Z,17.05
2022-10-22T11:24:08.256Z,17.01
2022-10-22T11:27:02.033Z,16.94
2022-10-22T11:29:36.203Z,17.07
2022-10-22T11:32:03.271Z,17.09
2022-10-22T11:34:44.476Z,17.25
2022-10-22T11:37:11.861Z,17.21
2022-10-22T11:39:42.814Z,17.32
2022-10-22T11:42:19.332Z,17.26
2022-10-22T11:44:47.924Z,17.30
2022-10-22T11:47:29.803Z,17.38
2022-10-22T11:50:18.468Z,17.33
2022-10-22T11:53:00.562Z,17.45
2022-10-22T11:55:48.487Z,17.37
2022-10-22T11:58:39.104Z,17.42
2022-10-22T12:01:08.318Z,17.50
2022-10-22T12:03:34.756Z,17.49
2022-10-22T12:06:12.004Z,17.56
2022-10-22T12:08:56.766Z,17.55
2022-10-22T12:26:06.750Z,18.22
2022-10-22T12:28:40.720Z,18.32
2022-10-22T12:31:39.014Z,18.28
2022-10-22T12:34:05.893Z,18.31
2022-10-22T12:36:36.389Z,18.51
2022-10-22T12:39:09.019Z,18.42
2022-10-22T12:41:37.180Z,18.56
2022-10-22T12:44:05.122Z,18.76
2022-10-22T12:46:33.493Z,18.88
2022-10-22T12:49:05.651Z,19.09
2022-10-22T12:54:07.315Z,19.03
2022-10-22T12:56:35.278Z,18.93
2022-10-22T12:59:11.479Z,19.04
2022-10-22T13:01:39.673Z,19.04
2022-10-22T13:04:18.741Z,18.94
2022-10-22T13:06:50.786Z,18.81
2022-10-22T13:09:25.385Z,18.69
2022-10-22T13:12:04.521Z,18.81
2022-10-22T13:14:37.444Z,18.87
2022-10-22T13:17:15.613Z,18.98
2022-10-22T13:19:44.160Z,18.99
2022-10-22T13:22:33.309Z,18.93
2022-10-22T13:25:20.203Z,18.95
2022-10-22T14:05:35.239Z,18.97
2022-10-22T14:08:02.279Z,18.91
2022-10-22T14:10:28.800Z,18.94
2022-10-22T14:12:55.363Z,18.88
2022-10-22T14:15:24.151Z,18.87
2022-10-22T14:17:54.628Z,18.88
2022-10-22T14:20:32.032Z,18.86
2022-10-22T14:23:05.588Z,18.82
2022-10-22T14:25:32.207Z,18.78
2022-10-22T14:27:58.707Z,18.78
2022-10-22T14:30:26.413Z,18.87
2022-10-22T14:32:53.097Z,18.81
2022-10-22T14:35:22.289Z,18.86
2022-10-22T14:37:48.875Z,18.86
2022-10-22T14:40:18.263Z,18.83
2022-10-22T14:42:46.471Z,18.79
2022-10-22T14:45:17.555Z,18.75
2022-10-22T14:47:44.206Z,18.72
2022-10-22T14:50:11.271Z,18.71
2022-10-22T14:52:38.087Z,18.63
2022-10-22T14:55:05.102Z,18.63
2022-10-22T14:57:31.631Z,18.62
2022-10-22T14:59:58.172Z,18.61
2022-10-22T15:02:26.070Z,18.54
2022-10-22T15:04:52.656Z,18.56
2022-10-22T15:07:20.282Z,18.52
2022-10-22T15:09:46.891Z,18.52
2022-10-22T15:12:13.393Z,18.47
2022-10-22T15:14:42.846Z,18.49
2022-10-22T15:17:09.387Z,18.50
2022-10-22T15:19:35.953Z,18.52
2022-10-22T15:22:02.496Z,18.48
2022-10-22T15:24:29.012Z,18.40
2022-10-22T15:26:55.555Z,18.38
2022-10-22T15:29:22.266Z,18.38
2022-10-22T15:31:49.611Z,18.33
2022-10-22T15:34:24.799Z,18.29
2022-10-22T15:36:51.616Z,18.10
2022-10-22T15:39:18.202Z,18.16
2022-10-22T15:41:44.969Z,18.13
2022-10-22T15:44:16.528Z,18.12
2022-10-22T15:46:43.493Z,18.11
2022-10-22T15:49:09.972Z,18.08
2022-10-22T15:51:36.518Z,17.97
2022-10-22T15:54:06.432Z,17.84
2022-10-22T15:56:35.860Z,17.88
2022-10-22T15:59:04.103Z,17.83
2022-10-22T16:01:32.116Z,17.75
2022-10-22T16:04:04.944Z,17.68
2022-10-22T16:06:39.886Z,17.64
2022-10-22T16:09:09.902Z,17.59
2022-10-22T16:11:37.199Z,17.43
2022-10-22T16:14:04.410Z,17.44
2022-10-22T16:16:32.874Z,17.41
2022-10-22T16:18:59.753Z,17.31
2022-10-22T16:21:26.856Z,17.26
2022-10-22T16:23:53.337Z,17.13
2022-10-22T16:26:20.066Z,17.14
2022-10-22T16:28:47.643Z,17.08
2022-10-22T16:31:16.420Z,17.00
2022-10-22T16:33:46.483Z,16.97
2022-10-22T16:36:18.656Z,16.91
2022-10-22T16:38:45.692Z,16.81
2022-10-22T16:41:19.033Z,16.74
2022-10-22T16:43:48.378Z,16.61
2022-10-22T16:46:20.270Z,16.61
2022-10-22T16:48:48.169Z,16.50
2022-10-22T16:51:17.625Z,16.51
2022-10-22T16:53:44.161Z,16.38
2022-10-22T16:56:15.785Z,16.05
2022-10-22T16:58:50.961Z,16.26
2022-10-22T17:01:18.692Z,16.17
2022-10-22T17:03:45.476Z,16.16
2022-10-22T17:06:12.075Z,16.01
2022-10-22T17:08:39.444Z,15.90
2022-10-22T17:11:10.611Z,15.94
2022-10-22T17:13:37.980Z,15.84
2022-10-22T17:16:06.275Z,15.88
2022-10-22T17:18:33.633Z,15.88
2022-10-22T17:21:00.179Z,15.71
2022-10-22T17:23:28.605Z,15.64
2022-10-22T17:26:06.224Z,15.56
2022-10-22T17:28:33.738Z,15.45
2022-10-22T17:31:03.166Z,15.29
2022-10-22T17:33:30.050Z,15.31
2022-10-22T17:35:56.529Z,15.39
2022-10-22T17:38:23.199Z,15.45
2022-10-22T17:40:49.748Z,15.43
2022-10-22T17:43:16.277Z,15.20
2022-10-22T17:45:42.782Z,15.19
2022-10-22T17:48:09.413Z,15.19
2022-10-22T17:50:40.379Z,15.07
2022-10-22T17:53:06.879Z,15.03
2022-10-22T17:55:34.791Z,15.10
2022-10-22T17:58:01.944Z,15.14
2022-10-22T18:00:32.361Z,15.13
2022-10-22T18:03:00.801Z,15.09
2022-10-22T18:05:27.862Z,15.00
2022-10-22T18:07:55.931Z,14.86
2022-10-22T18:10:23.145Z,14.88
2022-10-22T18:12:49.716Z,14.89
2022-10-22T18:15:16.413Z,14.94
2022-10-22T18:17:43.079Z,14.89
2022-10-22T18:20:10.341Z,14.83
2022-10-22T18:22:36.828Z,14.73
2022-10-22T18:25:03.631Z,14.79
2022-10-22T18:27:30.486Z,14.68
2022-10-22T18:29:57.048Z,14.66
2022-10-22T18:32:23.602Z,14.65
2022-10-22T18:34:50.089Z,14.58
2022-10-22T18:37:16.765Z,14.57
2022-10-22T18:39:43.639Z,14.53
2022-10-22T18:42:10.152Z,14.49
2022-10-22T18:44:37.225Z,14.47
2022-10-22T18:47:03.835Z,14.33
2022-10-22T18:49:30.507Z,14.29
2022-10-22T18:51:57.273Z,14.33
2022-10-22T18:54:24.606Z,14.40
2022-10-22T18:57:00.547Z,14.34
2022-10-22T18:59:29.186Z,14.27
2022-10-22T19:01:59.311Z,14.14
2022-10-22T19:04:30.995Z,14.05
2022-10-22T19:06:57.564Z,14.09
2022-10-22T19:09:25.064Z,14.06
2022-10-22T19:11:51.543Z,14.06
2022-10-22T19:14:19.507Z,14.09
2022-10-22T19:16:49.594Z,13.99
2022-10-22T19:19:18.651Z,14.06
2022-10-22T19:21:45.939Z,14.03
2022-10-22T19:24:14.387Z,14.06
2022-10-22T19:26:41.620Z,14.05
2022-10-22T19:29:08.729Z,14.01
2022-10-22T19:31:35.306Z,13.92
2022-10-22T19:34:02.094Z,13.83
2022-10-22T19:36:30.047Z,13.82
2022-10-22T19:38:57.101Z,13.88
2022-10-22T19:41:25.621Z,13.78
2022-10-22T19:43:53.815Z,13.77
2022-10-22T19:46:21.824Z,13.65
2022-10-22T19:48:49.779Z,13.50
2022-10-22T19:51:21.517Z,13.51
2022-10-22T19:53:49.083Z,13.56
2022-10-22T19:56:20.290Z,13.51
2022-10-22T19:58:46.800Z,13.56
2022-10-22T20:01:15.784Z,13.48
2022-10-22T20:03:42.612Z,13.40
2022-10-22T20:06:10.786Z,13.33
2022-10-22T20:08:38.281Z,13.13
2022-10-22T20:11:07.080Z,13.20
2022-10-22T20:13:35.154Z,13.33
2022-10-22T20:16:01.767Z,13.33
2022-10-22T20:18:28.261Z,13.32
2022-10-22T20:20:54.801Z,13.37
2022-10-22T20:23:21.468Z,13.23
2022-10-22T20:25:48.244Z,13.19
2022-10-22T20:28:15.369Z,13.05
2022-10-22T20:30:46.118Z,13.12
2022-10-22T20:33:13.189Z,13.16
2022-10-22T20:35:39.734Z,13.14
2022-10-22T20:38:07.836Z,13.04
2022-10-22T20:40:34.671Z,13.04
2022-10-22T20:43:01.618Z,12.89
2022-10-22T20:45:28.557Z,12.84
2022-10-22T20:48:01.912Z,12.83
2022-10-22T20:50:31.965Z,12.84
2022-10-22T20:52:58.982Z,12.81
2022-10-22T20:55:25.773Z,12.94
2022-10-22T20:57:52.275Z,12.71
2022-10-22T21:00:18.941Z,12.74
2022-10-22T21:02:45.460Z,12.73
2022-10-22T21:05:11.913Z,12.86
2022-10-22T21:07:38.427Z,12.77
2022-10-22T21:10:05.426Z,12.72
2022-10-22T21:12:31.890Z,12.65
2022-10-22T21:14:58.392Z,12.72
2022-10-22T21:17:24.891Z,12.55
2022-10-22T21:19:51.359Z,12.55
2022-10-22T21:22:17.811Z,12.49
2022-10-22T21:24:44.270Z,12.55
2022-10-22T21:27:10.715Z,12.59
2022-10-22T21:29:37.175Z,12.69
2022-10-22T21:32:03.753Z,12.69
2022-10-22T21:34:31.188Z,12.59
2022-10-22T21:36:58.982Z,12.36
2022-10-22T21:39:25.488Z,12.35
2022-10-22T21:41:52.011Z,12.36
2022-10-22T21:44:18.585Z,12.38
2022-10-22T21:46:45.089Z,12.30
2022-10-22T21:49:12.236Z,12.30
2022-10-22T21:51:39.300Z,12.31
2022-10-22T21:54:06.187Z,12.29
2022-10-22T21:56:34.793Z,12.26
2022-10-22T21:59:02.720Z,12.26
2022-10-22T22:01:29.263Z,12.26
2022-10-22T22:03:55.809Z,12.37
2022-10-22T22:06:24.218Z,12.29
2022-10-22T22:08:54.458Z,12.25
2022-10-22T22:11:24.282Z,12.30
2022-10-22T22:13:52.038Z,12.20
2022-10-22T22:16:27.038Z,12.23
2022-10-22T22:18:55.587Z,12.11
2022-10-22T22:21:22.128Z,11.97
2022-10-22T22:23:49.842Z,11.98
2022-10-22T22:26:22.052Z,11.93
2022-10-22T22:28:50.487Z,11.88
2022-10-22T22:31:19.261Z,12.04
2022-10-22T22:33:46.067Z,12.03
2022-10-22T22:36:12.580Z,11.97
2022-10-22T22:38:39.882Z,11.97
2022-10-22T22:41:07.444Z,11.96
2022-10-22T22:43:34.644Z,11.94
2022-10-22T22:46:10.122Z,11.90
2022-10-22T22:48:36.651Z,11.99
2022-10-22T22:51:04.701Z,11.98
2022-10-22T22:53:31.829Z,11.92
2022-10-22T22:56:04.360Z,11.97
2022-10-22T22:58:31.069Z,11.83
2022-10-22T23:01:28.608Z,11.72
2022-10-22T23:03:59.166Z,11.74
2022-10-22T23:06:27.935Z,11.71
2022-10-22T23:08:55.036Z,11.70
2022-10-22T23:11:23.242Z,11.71
2022-10-22T23:13:53.950Z,11.79
2022-10-22T23:16:21.572Z,11.79
2022-10-22T23:18:49.397Z,11.76
2022-10-22T23:21:21.475Z,11.86
2022-10-22T23:23:53.755Z,11.76
2022-10-22T23:26:22.693Z,11.81
2022-10-22T23:28:49.405Z,11.65
2022-10-22T23:31:18.199Z,11.46
2022-10-22T23:33:45.372Z,11.62
2022-10-22T23:36:12.457Z,11.81
2022-10-22T23:38:39.815Z,11.59
2022-10-22T23:41:06.877Z,11.78
2022-10-22T23:43:37.757Z,11.75
2022-10-22T23:46:05.787Z,11.63
2022-10-22T23:48:32.351Z,11.65
2022-10-22T23:51:07.348Z,11.78
2022-10-22T23:53:34.116Z,11.82
2022-10-22T23:56:17.455Z,11.87
2022-10-22T23:58:44.539Z,11.73
